Etusivu
METAR-TAF:

METAR-TAF

Lentoasemat :

Emmen, Sveitsi

Leveyspiiri: 47-05-32N, Pituuspiiri: 8-18-16E, korkeus merenpinnasta: 426 m

Tämänhetkinen sää

Tämä raportti tehtiin 15 minuuttia sitten, kello 03.50 UTC
tyyntä
Lämpötila 0°C
Kosteus 93%
Ilmanpaine 1030 hPa
Näkyvyys 10 km tai enemmän
Muutamia pilviä 3900 ft:n korkeudessa
Hajonneita pilviä 5800 ft:n korkeudessa
Pilvistä 6600 ft:n korkeudessa

METAR: LSME 190350Z AUTO 00000KT 9999NDV FEW039 BKN058 OVC066 00/M01 Q1030 RMK

Aika: 05:05 (04:05 UTC)


TAF: puuttuu

Säähavainnot ja -ennusteet yli 4000 lentoasemalta (METAR- ja TAF-raportit).

Käytössä olevat sääasemat on merkitty karttaan keltaisilla ja punaisilla pisteillä.

Aseta hiiri pisteen päälle nähdäksesi sääaseman nimen.

Klikkaa sitten nähdäksesi säähavainnot ja -ennusteet.

Kartan vaihtaminen: klikkaa mustalla rastilla varustettuja vihreitä pisteitä, niin voit zoomata sisään; viivalla varustettua vihreää pistettä, niin voit zoomata ulos tai vihreitä nuolia, niin pääset viereisille kartoille.


METAR-TAF: